Marola — IBFL — position and weather

sailwx.info

Track history (hours):
 
Tides and Currents Weather Stations Pressure Air Temp Water Temp Dewpoint Dewpoint Depression Visibility Wind Speed Wind Dir Waves Ship Positions

Marola

Last reported at 2016-Apr-25 02:29 UTC. Time now 2016-Apr-28 21:48 UTC.
Position N 27°29' W 083°02'.

Length 180 m; draft 7.4 m.

Type: Ship (hazmat cat B). MMSI: 247094900.

Date/timePositionNaut miles runAvg speedWind from/ knotsBaromVisibWave heightAir tempDewpointWater temp
2016-Apr-25 02:29N 27°29' W 083°02'1011.2
2016-Apr-25 01:33N 27°36' W 082°54'1413.9
2016-Apr-25 00:33N 27°38' W 082°38'1413.7
2016-Apr-24 23:33N 27°48' W 082°28'7 6.8
2016-Apr-24 22:33N 27°54' W 082°25'0 0.0
2016-Apr-24 21:32N 27°54' W 082°25'0 0.0
2016-Apr-24 20:33N 27°54' W 082°25'0 0.0
2016-Apr-24 19:33N 27°54' W 082°25'0 0.0
2016-Apr-24 18:33N 27°54' W 082°25'0 0.0
2016-Apr-24 17:33N 27°54' W 082°25'0 0.0
2016-Apr-24 16:33N 27°54' W 082°25'0 0.0
2016-Apr-24 15:33N 27°54' W 082°25'0 0.0
2016-Apr-24 14:33N 27°54' W 082°25'0 0.0
2016-Apr-24 13:33N 27°54' W 082°25'0 0.0
2016-Apr-24 12:33N 27°54' W 082°25'0 0.0
2016-Apr-24 11:33N 27°54' W 082°25'0 0.0
2016-Apr-24 10:33N 27°54' W 082°25'0 0.0
2016-Apr-24 09:33N 27°54' W 082°25'0 0.0
2016-Apr-24 08:33N 27°54' W 082°25'0 0.0
2016-Apr-24 07:33N 27°54' W 082°25'0 0.0
2016-Apr-24 06:33N 27°54' W 082°25'0 0.0
2016-Apr-24 05:33N 27°54' W 082°25'0 0.0
2016-Apr-24 04:33N 27°54' W 082°25'0 0.0
2016-Apr-24 03:33N 27°54' W 082°25'0 0.0
2016-Apr-24 02:33N 27°54' W 082°25'0 0.4
2016-Apr-24 01:33N 27°54' W 082°25'2 1.5
2016-Apr-24 00:32N 27°55' W 082°27'0 0.1
2016-Apr-23 23:32N 27°55' W 082°27'0 0.0
2016-Apr-23 22:32N 27°55' W 082°27'0 0.0
2016-Apr-23 21:29N 27°55' W 082°27'0 0.0
2016-Apr-23 20:32N 27°55' W 082°27'0 0.0
2016-Apr-23 19:32N 27°55' W 082°27'0 0.0
2016-Apr-23 18:29N 27°55' W 082°27'0 0.0
2016-Apr-23 17:32N 27°55' W 082°27'0 0.0
2016-Apr-23 16:32N 27°55' W 082°27'0 0.0
2016-Apr-23 15:32N 27°55' W 082°27'0 0.0
2016-Apr-23 14:32N 27°55' W 082°27'0 0.0
2016-Apr-23 13:29N 27°55' W 082°27'0 0.0
2016-Apr-23 12:32N 27°55' W 082°27'0 0.0
2016-Apr-23 11:32N 27°55' W 082°27'0 0.0
2016-Apr-23 10:29N 27°55' W 082°27'0 0.0
2016-Apr-23 09:32N 27°55' W 082°27'0 0.0
2016-Apr-23 08:32N 27°55' W 082°27'0 0.0
2016-Apr-23 07:29N 27°55' W 082°27'0 0.0
2016-Apr-23 06:29N 27°55' W 082°27'0 0.0
2016-Apr-23 05:32N 27°55' W 082°27'5 5.2
2016-Apr-23 04:33N 27°50' W 082°27'1111.5
2016-Apr-23 03:33N 27°41' W 082°35'  
2016-Apr-18 07:34N 10°43' W 061°49'1515.0
2016-Apr-18 06:34N 10°28' W 061°48'1414.3
2016-Apr-18 05:33N 10°23' W 061°35'2 1.4
2016-Apr-18 04:29N 10°23' W 061°33'0 0.0
2016-Apr-18 03:32N 10°23' W 061°33'4 0.7
2016-Apr-17 22:23N 10°24' W 061°30'0 0.0
2016-Apr-17 21:29N 10°24' W 061°30'0 0.0
2016-Apr-17 19:11N 10°24' W 061°30'0 0.0
2016-Apr-17 18:29N 10°24' W 061°30'0 0.0
2016-Apr-17 16:23N 10°24' W 061°30'0 0.0
2016-Apr-17 15:29N 10°24' W 061°30'0 0.0
2016-Apr-17 14:29N 10°24' W 061°30'0 0.0
2016-Apr-17 13:33N 10°24' W 061°30'2 2.1
2016-Apr-17 12:34N 10°23' W 061°31'2 1.2
2016-Apr-17 11:16N 10°23' W 061°30'0 0.0
2016-Apr-17 10:28N 10°23' W 061°30'0 0.0
2016-Apr-17 09:28N 10°23' W 061°30'0 0.0
2016-Apr-17 08:28N 10°23' W 061°30'0 0.0
2016-Apr-17 07:28N 10°23' W 061°30'0 0.0
2016-Apr-17 06:28N 10°23' W 061°30'0 0.0
2016-Apr-17 05:28N 10°23' W 061°30'0 0.0
2016-Apr-17 04:16N 10°23' W 061°30'0 0.0
2016-Apr-17 03:28N 10°23' W 061°30'0 0.0
2016-Apr-17 02:28N 10°23' W 061°30'0 0.0
2016-Apr-17 01:28N 10°23' W 061°30'0 0.0
2016-Apr-17 00:28N 10°23' W 061°30'0 0.0
2016-Apr-16 23:16N 10°23' W 061°30'0 0.0
2016-Apr-16 22:28N 10°23' W 061°30'0 0.0
2016-Apr-16 21:28N 10°23' W 061°30'0 0.0
2016-Apr-16 20:28N 10°23' W 061°30'0 0.0
2016-Apr-16 19:28N 10°23' W 061°30'0 0.0
2016-Apr-16 18:28N 10°23' W 061°30'0 0.0
2016-Apr-16 17:28N 10°23' W 061°30'0 0.0
2016-Apr-16 16:28N 10°23' W 061°30'0 0.0
2016-Apr-16 15:28N 10°23' W 061°30'0 0.0
2016-Apr-16 14:28N 10°23' W 061°30'0 0.0
2016-Apr-16 13:28N 10°23' W 061°30'0 0.0
2016-Apr-16 12:28N 10°23' W 061°30'0 0.0
2016-Apr-16 11:22N 10°23' W 061°30'0 0.0
2016-Apr-16 10:28N 10°23' W 061°30'0 0.0
2016-Apr-16 09:28N 10°23' W 061°30'0 0.0
2016-Apr-16 08:28N 10°23' W 061°30'0 0.0
2016-Apr-16 07:28N 10°23' W 061°30'0 0.0
2016-Apr-16 06:28N 10°23' W 061°30'0 0.0
2016-Apr-16 05:28N 10°23' W 061°30'0 0.0
2016-Apr-16 04:28N 10°23' W 061°30'0 0.0
2016-Apr-16 03:28N 10°23' W 061°30'0 0.0
2016-Apr-16 02:28N 10°23' W 061°30'0 0.0
2016-Apr-16 01:28N 10°23' W 061°30'0 0.0
2016-Apr-16 00:28N 10°23' W 061°30'0 0.0
2016-Apr-15 23:28N 10°23' W 061°30'0 0.0
2016-Apr-15 22:28N 10°23' W 061°30'0 0.0
2016-Apr-15 21:28N 10°23' W 061°30'0 0.0
2016-Apr-15 20:22N 10°23' W 061°30'0 0.0
2016-Apr-15 19:10N 10°23' W 061°30'0 0.0
2016-Apr-15 18:28N 10°23' W 061°30'0 0.0
2016-Apr-15 17:28N 10°23' W 061°30'0 0.0
2016-Apr-15 16:22N 10°23' W 061°30'0 0.0
2016-Apr-15 15:22N 10°23' W 061°30'0 0.0
2016-Apr-15 14:28N 10°23' W 061°30'0 0.0
2016-Apr-15 12:28N 10°23' W 061°30'1 1.4
2016-Apr-15 11:33N 10°23' W 061°31'4 3.7
2016-Apr-15 10:32N 10°23' W 061°35'0 0.2
2016-Apr-15 09:33N 10°23' W 061°35'6 5.7
2016-Apr-15 08:33N 10°25' W 061°40'1212.3
2016-Apr-15 07:33N 10°33' W 061°50'1414.2
2016-Apr-15 06:33N 10°48' W 061°50'1413.7
2016-Apr-15 05:31N 10°58' W 061°59'6 5.4
2016-Apr-15 04:20N 11°02' W 062°04'  
Track history (hours):
 
Tides and Currents Weather Stations Pressure Air Temp Water Temp Dewpoint Dewpoint Depression Visibility Wind Speed Wind Dir Waves Ship Positions

Marola

Last reported at 2016-Apr-25 02:29 UTC. Time now 2016-Apr-28 21:48 UTC.
Position N 27°29' W 083°02'.

Length 180 m; draft 7.4 m.

Type: Ship (hazmat cat B). MMSI: 247094900.

Date/timePositionNaut miles runAvg speedWind from/ knotsBaromVisibWave heightAir tempDewpointWater temp
2016-Apr-25 02:29N 27°29' W 083°02'1011.2
2016-Apr-25 01:33N 27°36' W 082°54'1413.9
2016-Apr-25 00:33N 27°38' W 082°38'1413.7
2016-Apr-24 23:33N 27°48' W 082°28'7 6.8
2016-Apr-24 22:33N 27°54' W 082°25'0 0.0
2016-Apr-24 21:32N 27°54' W 082°25'0 0.0
2016-Apr-24 20:33N 27°54' W 082°25'0 0.0
2016-Apr-24 19:33N 27°54' W 082°25'0 0.0
2016-Apr-24 18:33N 27°54' W 082°25'0 0.0
2016-Apr-24 17:33N 27°54' W 082°25'0 0.0
2016-Apr-24 16:33N 27°54' W 082°25'0 0.0
2016-Apr-24 15:33N 27°54' W 082°25'0 0.0
2016-Apr-24 14:33N 27°54' W 082°25'0 0.0
2016-Apr-24 13:33N 27°54' W 082°25'0 0.0
2016-Apr-24 12:33N 27°54' W 082°25'0 0.0
2016-Apr-24 11:33N 27°54' W 082°25'0 0.0
2016-Apr-24 10:33N 27°54' W 082°25'0 0.0
2016-Apr-24 09:33N 27°54' W 082°25'0 0.0
2016-Apr-24 08:33N 27°54' W 082°25'0 0.0
2016-Apr-24 07:33N 27°54' W 082°25'0 0.0
2016-Apr-24 06:33N 27°54' W 082°25'0 0.0
2016-Apr-24 05:33N 27°54' W 082°25'0 0.0
2016-Apr-24 04:33N 27°54' W 082°25'0 0.0
2016-Apr-24 03:33N 27°54' W 082°25'0 0.0
2016-Apr-24 02:33N 27°54' W 082°25'0 0.4
2016-Apr-24 01:33N 27°54' W 082°25'2 1.5
2016-Apr-24 00:32N 27°55' W 082°27'0 0.1
2016-Apr-23 23:32N 27°55' W 082°27'0 0.0
2016-Apr-23 22:32N 27°55' W 082°27'0 0.0
2016-Apr-23 21:29N 27°55' W 082°27'0 0.0
2016-Apr-23 20:32N 27°55' W 082°27'0 0.0
2016-Apr-23 19:32N 27°55' W 082°27'0 0.0
2016-Apr-23 18:29N 27°55' W 082°27'0 0.0
2016-Apr-23 17:32N 27°55' W 082°27'0 0.0
2016-Apr-23 16:32N 27°55' W 082°27'0 0.0
2016-Apr-23 15:32N 27°55' W 082°27'0 0.0
2016-Apr-23 14:32N 27°55' W 082°27'0 0.0
2016-Apr-23 13:29N 27°55' W 082°27'0 0.0
2016-Apr-23 12:32N 27°55' W 082°27'0 0.0
2016-Apr-23 11:32N 27°55' W 082°27'0 0.0
2016-Apr-23 10:29N 27°55' W 082°27'0 0.0
2016-Apr-23 09:32N 27°55' W 082°27'0 0.0
2016-Apr-23 08:32N 27°55' W 082°27'0 0.0
2016-Apr-23 07:29N 27°55' W 082°27'0 0.0
2016-Apr-23 06:29N 27°55' W 082°27'0 0.0
2016-Apr-23 05:32N 27°55' W 082°27'5 5.2
2016-Apr-23 04:33N 27°50' W 082°27'1111.5
2016-Apr-23 03:33N 27°41' W 082°35'  
2016-Apr-18 07:34N 10°43' W 061°49'1515.0
2016-Apr-18 06:34N 10°28' W 061°48'1414.3
2016-Apr-18 05:33N 10°23' W 061°35'2 1.4
2016-Apr-18 04:29N 10°23' W 061°33'0 0.0
2016-Apr-18 03:32N 10°23' W 061°33'4 0.7
2016-Apr-17 22:23N 10°24' W 061°30'0 0.0
2016-Apr-17 21:29N 10°24' W 061°30'0 0.0
2016-Apr-17 19:11N 10°24' W 061°30'0 0.0
2016-Apr-17 18:29N 10°24' W 061°30'0 0.0
2016-Apr-17 16:23N 10°24' W 061°30'0 0.0
2016-Apr-17 15:29N 10°24' W 061°30'0 0.0
2016-Apr-17 14:29N 10°24' W 061°30'0 0.0
2016-Apr-17 13:33N 10°24' W 061°30'2 2.1
2016-Apr-17 12:34N 10°23' W 061°31'2 1.2
2016-Apr-17 11:16N 10°23' W 061°30'0 0.0
2016-Apr-17 10:28N 10°23' W 061°30'0 0.0
2016-Apr-17 09:28N 10°23' W 061°30'0 0.0
2016-Apr-17 08:28N 10°23' W 061°30'0 0.0
2016-Apr-17 07:28N 10°23' W 061°30'0 0.0
2016-Apr-17 06:28N 10°23' W 061°30'0 0.0
2016-Apr-17 05:28N 10°23' W 061°30'0 0.0
2016-Apr-17 04:16N 10°23' W 061°30'0 0.0
2016-Apr-17 03:28N 10°23' W 061°30'0 0.0
2016-Apr-17 02:28N 10°23' W 061°30'0 0.0
2016-Apr-17 01:28N 10°23' W 061°30'0 0.0
2016-Apr-17 00:28N 10°23' W 061°30'0 0.0
2016-Apr-16 23:16N 10°23' W 061°30'0 0.0
2016-Apr-16 22:28N 10°23' W 061°30'0 0.0
2016-Apr-16 21:28N 10°23' W 061°30'0 0.0
2016-Apr-16 20:28N 10°23' W 061°30'0 0.0
2016-Apr-16 19:28N 10°23' W 061°30'0 0.0
2016-Apr-16 18:28N 10°23' W 061°30'0 0.0
2016-Apr-16 17:28N 10°23' W 061°30'0 0.0
2016-Apr-16 16:28N 10°23' W 061°30'0 0.0
2016-Apr-16 15:28N 10°23' W 061°30'0 0.0
2016-Apr-16 14:28N 10°23' W 061°30'0 0.0
2016-Apr-16 13:28N 10°23' W 061°30'0 0.0
2016-Apr-16 12:28N 10°23' W 061°30'0 0.0
2016-Apr-16 11:22N 10°23' W 061°30'0 0.0
2016-Apr-16 10:28N 10°23' W 061°30'0 0.0
2016-Apr-16 09:28N 10°23' W 061°30'0 0.0
2016-Apr-16 08:28N 10°23' W 061°30'0 0.0
2016-Apr-16 07:28N 10°23' W 061°30'0 0.0
2016-Apr-16 06:28N 10°23' W 061°30'0 0.0
2016-Apr-16 05:28N 10°23' W 061°30'0 0.0
2016-Apr-16 04:28N 10°23' W 061°30'0 0.0
2016-Apr-16 03:28N 10°23' W 061°30'0 0.0
2016-Apr-16 02:28N 10°23' W 061°30'0 0.0
2016-Apr-16 01:28N 10°23' W 061°30'0 0.0
2016-Apr-16 00:28N 10°23' W 061°30'0 0.0
2016-Apr-15 23:28N 10°23' W 061°30'0 0.0
2016-Apr-15 22:28N 10°23' W 061°30'0 0.0
2016-Apr-15 21:28N 10°23' W 061°30'0 0.0
2016-Apr-15 20:22N 10°23' W 061°30'0 0.0
2016-Apr-15 19:10N 10°23' W 061°30'0 0.0
2016-Apr-15 18:28N 10°23' W 061°30'0 0.0
2016-Apr-15 17:28N 10°23' W 061°30'0 0.0
2016-Apr-15 16:22N 10°23' W 061°30'0 0.0
2016-Apr-15 15:22N 10°23' W 061°30'0 0.0
2016-Apr-15 14:28N 10°23' W 061°30'0 0.0
2016-Apr-15 12:28N 10°23' W 061°30'1 1.4
2016-Apr-15 11:33N 10°23' W 061°31'4 3.7
2016-Apr-15 10:32N 10°23' W 061°35'0 0.2
2016-Apr-15 09:33N 10°23' W 061°35'6 5.7
2016-Apr-15 08:33N 10°25' W 061°40'1212.3
2016-Apr-15 07:33N 10°33' W 061°50'1414.2
2016-Apr-15 06:33N 10°48' W 061°50'1413.7
2016-Apr-15 05:31N 10°58' W 061°59'6 5.4
2016-Apr-15 04:20N 11°02' W 062°04'  

Dump ship's entire track history